Notice: A non well formed numeric value encountered in /services16/webpages/util/w/t/wt8r5xhl.myutilitysite.com/weatherstationew0157.net/public/weather28/wsFunctions.php on line 312

Warning: A non-numeric value encountered in /services16/webpages/util/w/t/wt8r5xhl.myutilitysite.com/weatherstationew0157.net/public/weather28/wsFunctions.php on line 312

Warning: A non-numeric value encountered in /services16/webpages/util/w/t/wt8r5xhl.myutilitysite.com/weatherstationew0157.net/public/weather28/wsFunctions.php on line 312

Warning: A non-numeric value encountered in /services16/webpages/util/w/t/wt8r5xhl.myutilitysite.com/weatherstationew0157.net/public/weather28/scriptsWL/tagsWL.php on line 167

Warning: A non-numeric value encountered in /services16/webpages/util/w/t/wt8r5xhl.myutilitysite.com/weatherstationew0157.net/public/weather28/scriptsWL/tagsWL.php on line 168

Notice: Undefined index: moonrise in /services16/webpages/util/w/t/wt8r5xhl.myutilitysite.com/weatherstationew0157.net/public/weather28/inc/astronomy.php on line 427

Notice: Undefined index: moonset in /services16/webpages/util/w/t/wt8r5xhl.myutilitysite.com/weatherstationew0157.net/public/weather28/inc/astronomy.php on line 428
Announcements

Announcements


NOTE: You can change the way the site looks for you by clicking the "Customize" button at the top of the menu and saving when you are done.


Weather Cam 1 more information Weather Cam 1


Visit our other weather sites:

Template documentation
and downloads

And another site


Nearby METAR Reports

   
KMMU - Bloomingdale, New Jersey 07403
Updated: Nov 30 2021 6:15 am
Overcast  
Overcast  
   Wind: Calm
Wind: Calm
Temperature: 24.8°F
Dew Point: 23°F
Humidity: 93%
Barometer: 30.02 inHg
Clouds: Overcast
Visibility: 10 mi
Cloud details: Overcast 1676 m
KMMU 301115Z AUTO 00000KT 10SM OVC055 M04/M05 A3002 RMK AO2
KTEB - Clifton, New Jersey 07014
Updated: Nov 30 2021 5:51 am
Mostly Cloudy  
Mostly Cloudy  
   Wind: Calm
Wind: Calm
Temperature: 24.8°F
Dew Point: 17.6°F
Humidity: 74%
Barometer: 30.02 inHg
Clouds: Mostly Cloudy
Visibility: 10 mi
Cloud details: Mostly Cloudy 1981 m
KTEB 301051Z 00000KT 10SM BKN065 M04/M08 A3002 RMK AO2 SLP166 T10441078
KFWN - Franklin, New Jersey 07416
Updated: Nov 30 2021 4:53 am
NOT Current
Overcast  
Overcast  
   Wind: WSW 3.5 mph
Wind: WSW 3.5 mph
Temperature: 23°F
Wind Chill: 17.6°F
Dew Point: 21.2°F
Humidity: 93%
Barometer: 29.98 inHg
Clouds: Overcast
Visibility: 10 mi
Cloud details: Overcast 1829 m
KFWN 300953Z AUTO 24003KT 10SM OVC060 M05/M06 A2998 RMK AO2 SLP156 T10501061 PWINO FZRANO $
KFWN - Hamburg, New Jersey 07419
Updated: Nov 30 2021 4:53 am
NOT Current
Overcast  
Overcast  
   Wind: WSW 3.5 mph
Wind: WSW 3.5 mph
Temperature: 23°F
Wind Chill: 17.6°F
Dew Point: 21.2°F
Humidity: 93%
Barometer: 29.98 inHg
Clouds: Overcast
Visibility: 10 mi
Cloud details: Overcast 1829 m
KFWN 300953Z AUTO 24003KT 10SM OVC060 M05/M06 A2998 RMK AO2 SLP156 T10501061 PWINO FZRANO $
KFWN - Highland Lakes, New Jersey 07422
Updated: Nov 30 2021 4:53 am
NOT Current
Overcast  
Overcast  
   Wind: WSW 3.5 mph
Wind: WSW 3.5 mph
Temperature: 23°F
Wind Chill: 17.6°F
Dew Point: 21.2°F
Humidity: 93%
Barometer: 29.98 inHg
Clouds: Overcast
Visibility: 10 mi
Cloud details: Overcast 1829 m
KFWN 300953Z AUTO 24003KT 10SM OVC060 M05/M06 A2998 RMK AO2 SLP156 T10501061 PWINO FZRANO $
KMMU - Hopatcong,New Jersey 07849
Updated: Nov 30 2021 6:15 am
Overcast  
Overcast  
   Wind: Calm
Wind: Calm
Temperature: 24.8°F
Dew Point: 23°F
Humidity: 93%
Barometer: 30.02 inHg
Clouds: Overcast
Visibility: 10 mi
Cloud details: Overcast 1676 m
KMMU 301115Z AUTO 00000KT 10SM OVC055 M04/M05 A3002 RMK AO2
KFWN - Jefferson, New Jersey 07438
Updated: Nov 30 2021 4:53 am
NOT Current
Overcast  
Overcast  
   Wind: WSW 3.5 mph
Wind: WSW 3.5 mph
Temperature: 23°F
Wind Chill: 17.6°F
Dew Point: 21.2°F
Humidity: 93%
Barometer: 29.98 inHg
Clouds: Overcast
Visibility: 10 mi
Cloud details: Overcast 1829 m
KFWN 300953Z AUTO 24003KT 10SM OVC060 M05/M06 A2998 RMK AO2 SLP156 T10501061 PWINO FZRANO $
KLDJ - Keansburg, New Jersey 07734
Updated: Nov 30 2021 6:35 am
Overcast  
Overcast  
   Wind: Calm
Wind: Calm
Temperature: 30.2°F
Dew Point: 21.2°F
Humidity: 69%
Barometer: 30.04 inHg
Clouds: Overcast
Visibility: 10 mi
Cloud details: Overcast 1981 m
KLDJ 301135Z AUTO 00000KT 10SM OVC065 M01/M06 A3004 RMK AO2 T10111057
KMJX - Lavallette, New Jersey 08735
Updated: Nov 24 2021 11:56 pm
NOT Current
Clear  
Clear  
   Wind: SSW 3.5 mph
Wind: SSW 3.5 mph
Temperature: 28.4°F
Wind Chill: 24.8°F
Dew Point: 23°F
Humidity: 80%
Barometer: 30.26 inHg
Clouds: Clear
Visibility: 10 mi
Cloud details: Clear m
KMJX 250456Z AUTO 21003KT 10SM CLR M02/M05 A3026 RMK AO2 SLP253 T10221050 400721028 FZRANO TSNO
KTEB - Little Ferry, New Jersey 07643
Updated: Nov 30 2021 5:51 am
Mostly Cloudy  
Mostly Cloudy  
   Wind: Calm
Wind: Calm
Temperature: 24.8°F
Dew Point: 17.6°F
Humidity: 74%
Barometer: 30.02 inHg
Clouds: Mostly Cloudy
Visibility: 10 mi
Cloud details: Mostly Cloudy 1981 m
KTEB 301051Z 00000KT 10SM BKN065 M04/M08 A3002 RMK AO2 SLP166 T10441078
KTEB - Spring Valley, NY 10977
Updated: Nov 30 2021 5:51 am
Mostly Cloudy  
Mostly Cloudy  
   Wind: Calm
Wind: Calm
Temperature: 24.8°F
Dew Point: 17.6°F
Humidity: 74%
Barometer: 30.02 inHg
Clouds: Mostly Cloudy
Visibility: 10 mi
Cloud details: Mostly Cloudy 1981 m
KTEB 301051Z 00000KT 10SM BKN065 M04/M08 A3002 RMK AO2 SLP166 T10441078
KEWR - Newark, New Jersey 07104
Updated: Nov 30 2021 5:51 am
Overcast  
Overcast  
   Wind: SW 4.6 mph
Wind: SW 4.6 mph
Temperature: 28.4°F
Wind Chill: 23°F
Dew Point: 21.2°F
Humidity: 74%
Barometer: 30.03 inHg
Clouds: Overcast
Visibility: 10 mi
Cloud details: Overcast 1829 m
KEWR 301051Z 22004KT 10SM OVC060 M02/M06 A3003 RMK AO2 SLP169 T10171061
KMMU - Newfoundland, New Jersey 07435
Updated: Nov 30 2021 6:15 am
Overcast  
Overcast  
   Wind: Calm
Wind: Calm
Temperature: 24.8°F
Dew Point: 23°F
Humidity: 93%
Barometer: 30.02 inHg
Clouds: Overcast
Visibility: 10 mi
Cloud details: Overcast 1676 m
KMMU 301115Z AUTO 00000KT 10SM OVC055 M04/M05 A3002 RMK AO2
KLGA - Yonkers, New York 10710
Updated: Nov 30 2021 5:51 am
Few Clouds  
Few Clouds  
   Wind: West 5.8 mph
Wind: West 5.8 mph
Temperature: 35.6°F
Wind Chill: 30.2°F
Dew Point: 19.4°F
Humidity: 52%
Barometer: 30.03 inHg
Clouds: Few Clouds
Visibility: 10 mi
Cloud details: Few Clouds 1829 m
KLGA 301051Z 27005KT 10SM FEW060 02/M07 A3003 RMK AO2 SLP167 T00171072
 

Script developed by  Saratoga-weather.org Adapted for the template by  Weerstation Leuven

You find our weather info also at:

Weather Underground

Citizen Weather Observer Program (CWOP)

Equipment we use:

Weather-station
Davis Vantage Pro2

Weather-program
WeatherLink

Weather-server
DELL Optiplex 7020 Mini-Tower

Provider
Deluxe

Davis Vantage Pro2

WeatherLink

DELL Optiplex 7020 Mini-Tower

Deluxe

Weather Station EW0157 Visitors
Weather Station EW0157 Visitors